createdAt,value
2022-12-15T05:37:35.136Z,136.65
2022-12-15T05:40:08.080Z,126.00
2022-12-15T05:42:40.307Z,127.63
2022-12-15T05:45:12.387Z,130.75
2022-12-15T05:47:44.588Z,119.63
2022-12-15T05:50:16.829Z,122.15
2022-12-15T05:52:50.000Z,126.70
2022-12-15T05:55:22.735Z,121.05
2022-12-15T05:57:55.456Z,109.18
2022-12-15T06:00:27.430Z,115.72
2022-12-15T06:02:59.492Z,107.07
2022-12-15T06:05:32.070Z,106.27
2022-12-15T06:08:04.357Z,98.65
2022-12-15T06:10:36.461Z,96.68
2022-12-15T06:13:09.427Z,105.45
2022-12-15T06:15:41.501Z,104.80
2022-12-15T06:18:13.544Z,102.28
2022-12-15T06:20:46.635Z,105.75
2022-12-15T06:23:21.847Z,104.57
2022-12-15T06:25:55.360Z,99.80
2022-12-15T06:28:28.090Z,116.20
2022-12-15T06:31:03.180Z,107.18
2022-12-15T06:33:37.308Z,101.93
2022-12-15T06:38:44.155Z,106.75
2022-12-15T06:41:19.657Z,97.40
2022-12-15T06:43:53.525Z,99.50
2022-12-15T06:46:28.052Z,103.00
2022-12-15T06:49:00.384Z,104.60
2022-12-15T06:51:32.824Z,108.10
2022-12-15T06:54:04.970Z,107.35
2022-12-15T06:56:37.297Z,102.00
2022-12-15T06:59:11.446Z,112.35
2022-12-15T07:01:44.038Z,112.80
2022-12-15T07:04:16.462Z,104.27
2022-12-15T07:06:49.835Z,108.10
2022-12-15T07:09:22.252Z,107.88
2022-12-15T07:11:54.552Z,152.63
2022-12-15T07:14:26.791Z,159.38
2022-12-15T07:16:59.385Z,124.70
2022-12-15T07:19:31.445Z,128.67
2022-12-15T07:22:03.552Z,109.93
2022-12-15T07:24:35.562Z,107.70
2022-12-15T07:27:07.837Z,102.53
2022-12-15T07:29:39.912Z,103.55
2022-12-15T07:32:12.545Z,102.80
2022-12-15T07:34:44.740Z,102.93
2022-12-15T07:37:17.570Z,100.07
2022-12-15T07:39:49.533Z,106.63
2022-12-15T07:42:21.937Z,102.93
2022-12-15T07:44:55.376Z,107.68
2022-12-15T07:47:28.129Z,105.22
2022-12-15T07:50:00.365Z,118.35
2022-12-15T07:52:32.603Z,117.72
2022-12-15T14:52:05.739Z,143.40
2022-12-15T14:54:50.350Z,140.43
2022-12-15T14:57:28.516Z,143.95
2022-12-15T15:00:00.937Z,137.80
2022-12-15T15:02:33.252Z,140.18
2022-12-15T15:05:21.131Z,136.93
2022-12-15T15:07:56.867Z,127.90
2022-12-15T15:10:30.185Z,132.82
2022-12-15T15:13:02.941Z,139.30
2022-12-15T15:15:34.922Z,124.47
2022-12-15T15:18:06.970Z,127.80
2022-12-15T15:20:39.049Z,133.00
2022-12-15T15:23:18.349Z,129.57
2022-12-15T15:25:56.630Z,114.85
2022-12-15T15:28:48.906Z,129.93
2022-12-15T15:31:41.698Z,115.70
2022-12-15T15:34:14.512Z,104.87
2022-12-15T15:36:47.423Z,118.72
2022-12-15T15:39:21.569Z,125.28
2022-12-15T15:41:54.010Z,121.47
2022-12-15T15:44:27.430Z,124.55
2022-12-15T15:49:37.751Z,130.85
2022-12-15T15:52:13.410Z,130.93
2022-12-15T15:57:19.029Z,130.90
2022-12-15T15:59:51.250Z,150.93
2022-12-15T16:02:23.406Z,155.10
2022-12-15T16:04:55.834Z,150.18
2022-12-15T16:07:29.137Z,152.13
2022-12-15T16:10:01.936Z,146.20
2022-12-15T16:12:42.509Z,151.10
2022-12-15T16:15:24.191Z,173.82
2022-12-15T16:17:56.173Z,147.80
2022-12-15T16:20:29.858Z,173.20
2022-12-15T16:23:05.543Z,159.38
2022-12-15T16:25:50.311Z,142.90
2022-12-15T16:28:26.088Z,144.40
2022-12-15T16:30:58.966Z,150.65
2022-12-15T16:36:12.256Z,148.68
2022-12-15T16:38:44.347Z,150.23
2022-12-15T16:41:17.750Z,149.30
2022-12-15T16:43:50.318Z,158.02
2022-12-15T16:46:22.414Z,154.10
2022-12-15T16:48:54.787Z,143.45
2022-12-15T16:51:35.043Z,148.87
2022-12-15T16:54:12.443Z,162.40
2022-12-15T16:56:44.606Z,157.43
2022-12-15T16:59:35.090Z,144.13
2022-12-15T17:02:29.063Z,155.40
2022-12-15T17:05:01.356Z,155.20
2022-12-15T17:07:33.385Z,151.48
2022-12-15T17:10:06.305Z,155.93
2022-12-15T17:12:38.363Z,153.88
2022-12-15T17:15:22.291Z,150.18
2022-12-15T17:17:55.564Z,159.40
2022-12-15T17:20:30.717Z,152.57
2022-12-15T17:23:13.450Z,151.77
2022-12-15T17:26:21.093Z,163.90
2022-12-15T17:28:40.863Z,150.68
2022-12-15T17:31:24.237Z,149.93
2022-12-15T17:33:56.511Z,167.77
2022-12-15T17:36:28.946Z,159.45
2022-12-15T17:39:01.738Z,160.13
2022-12-15T17:41:58.728Z,161.02
2022-12-15T17:44:33.553Z,145.25
2022-12-15T17:47:08.551Z,164.13
2022-12-15T17:49:41.808Z,153.50
2022-12-15T17:52:29.256Z,151.97
2022-12-15T17:55:03.267Z,158.85
2022-12-15T17:57:35.445Z,166.45
2022-12-15T18:00:19.231Z,174.32
2022-12-15T18:05:26.772Z,163.65
2022-12-15T18:08:02.705Z,202.55
2022-12-15T18:10:39.597Z,224.00
2022-12-15T18:13:34.878Z,190.88
2022-12-15T18:16:07.882Z,205.73
2022-12-15T18:18:40.333Z,225.50
2022-12-15T18:21:15.463Z,187.50
2022-12-15T18:23:47.760Z,213.80
2022-12-15T18:26:19.755Z,184.10
2022-12-15T18:28:51.956Z,205.23
2022-12-15T18:31:29.089Z,209.23
2022-12-15T18:34:04.728Z,238.70
2022-12-15T18:36:37.158Z,192.23
2022-12-15T18:39:20.570Z,202.23
2022-12-15T18:41:56.510Z,191.73
2022-12-15T18:44:31.553Z,220.50
2022-12-15T18:47:11.705Z,201.02
2022-12-15T18:49:43.915Z,205.77
2022-12-15T18:52:20.061Z,224.88
2022-12-15T18:54:54.252Z,225.40
2022-12-15T18:57:32.701Z,230.80
2022-12-15T19:00:17.411Z,276.63
2022-12-15T19:02:49.711Z,243.63
2022-12-15T19:05:32.730Z,286.90
2022-12-15T19:08:26.901Z,239.48
2022-12-15T19:11:06.159Z,249.43
2022-12-15T19:13:39.432Z,273.73
2022-12-15T19:16:17.603Z,264.30
2022-12-15T19:19:11.329Z,269.73
2022-12-15T19:22:07.046Z,263.35
2022-12-15T19:24:54.193Z,286.70
2022-12-15T19:27:26.873Z,308.58
2022-12-15T19:29:58.962Z,292.80
2022-12-15T19:32:31.094Z,310.60
2022-12-15T19:35:03.304Z,271.08
2022-12-15T19:37:37.092Z,296.50
2022-12-15T19:40:22.199Z,272.90
2022-12-15T19:42:55.554Z,293.58
2022-12-15T19:45:31.674Z,227.48
2022-12-15T19:48:03.945Z,258.45
2022-12-15T19:50:37.542Z,262.45
